sensor_id;sensor_type;location;lat;lon;timestamp;P1;durP1;ratioP1;P2;durP2;ratioP2
3443;SDS011;1736;52.068;6.968;2024-03-29T00:00:09;5.43;;;2.17;;
3443;SDS011;1736;52.068;6.968;2024-03-29T00:02:35;4.00;;;2.10;;
3443;SDS011;1736;52.068;6.968;2024-03-29T00:05:01;5.07;;;2.20;;
3443;SDS011;1736;52.068;6.968;2024-03-29T00:07:26;5.87;;;2.00;;
3443;SDS011;1736;52.068;6.968;2024-03-29T00:09:52;2.95;;;1.80;;
3443;SDS011;1736;52.068;6.968;2024-03-29T00:12:19;6.80;;;2.20;;
3443;SDS011;1736;52.068;6.968;2024-03-29T00:14:45;4.30;;;1.92;;
3443;SDS011;1736;52.068;6.968;2024-03-29T00:17:10;3.63;;;1.95;;
3443;SDS011;1736;52.068;6.968;2024-03-29T00:19:36;4.10;;;2.10;;
3443;SDS011;1736;52.068;6.968;2024-03-29T00:22:01;4.65;;;1.70;;
3443;SDS011;1736;52.068;6.968;2024-03-29T00:24:27;4.60;;;1.80;;
3443;SDS011;1736;52.068;6.968;2024-03-29T00:26:53;4.10;;;2.10;;
3443;SDS011;1736;52.068;6.968;2024-03-29T00:29:20;7.20;;;2.10;;
3443;SDS011;1736;52.068;6.968;2024-03-29T00:31:46;4.13;;;1.90;;
3443;SDS011;1736;52.068;6.968;2024-03-29T00:34:12;4.50;;;2.20;;
3443;SDS011;1736;52.068;6.968;2024-03-29T00:36:37;4.43;;;2.00;;
3443;SDS011;1736;52.068;6.968;2024-03-29T00:39:03;2.30;;;2.10;;
3443;SDS011;1736;52.068;6.968;2024-03-29T00:41:28;3.50;;;1.98;;
3443;SDS011;1736;52.068;6.968;2024-03-29T00:43:54;5.40;;;2.10;;
3443;SDS011;1736;52.068;6.968;2024-03-29T00:46:21;4.93;;;1.90;;
3443;SDS011;1736;52.068;6.968;2024-03-29T00:48:47;2.65;;;1.70;;
3443;SDS011;1736;52.068;6.968;2024-03-29T00:51:12;3.70;;;1.63;;
3443;SDS011;1736;52.068;6.968;2024-03-29T00:53:38;3.07;;;1.80;;
3443;SDS011;1736;52.068;6.968;2024-03-29T00:56:04;2.53;;;1.77;;
3443;SDS011;1736;52.068;6.968;2024-03-29T00:58:30;3.88;;;1.60;;
3443;SDS011;1736;52.068;6.968;2024-03-29T01:00:55;2.53;;;1.70;;
3443;SDS011;1736;52.068;6.968;2024-03-29T01:03:22;2.53;;;1.60;;
3443;SDS011;1736;52.068;6.968;2024-03-29T01:05:48;4.88;;;1.70;;
3443;SDS011;1736;52.068;6.968;2024-03-29T01:08:13;4.68;;;1.50;;
3443;SDS011;1736;52.068;6.968;2024-03-29T01:10:39;3.77;;;1.57;;
3443;SDS011;1736;52.068;6.968;2024-03-29T01:13:05;4.80;;;1.70;;
3443;SDS011;1736;52.068;6.968;2024-03-29T01:15:30;2.33;;;1.65;;
3443;SDS011;1736;52.068;6.968;2024-03-29T01:17:56;1.50;;;1.40;;
3443;SDS011;1736;52.068;6.968;2024-03-29T01:20:23;2.95;;;1.42;;
3443;SDS011;1736;52.068;6.968;2024-03-29T01:22:48;4.63;;;1.80;;
3443;SDS011;1736;52.068;6.968;2024-03-29T01:25:14;3.87;;;1.70;;
3443;SDS011;1736;52.068;6.968;2024-03-29T01:27:40;2.70;;;1.47;;
3443;SDS011;1736;52.068;6.968;2024-03-29T01:30:06;1.92;;;1.45;;
3443;SDS011;1736;52.068;6.968;2024-03-29T01:32:32;2.58;;;1.42;;
3443;SDS011;1736;52.068;6.968;2024-03-29T01:34:58;3.20;;;1.60;;
3443;SDS011;1736;52.068;6.968;2024-03-29T01:37:25;2.50;;;1.50;;
3443;SDS011;1736;52.068;6.968;2024-03-29T01:39:51;3.67;;;1.30;;
3443;SDS011;1736;52.068;6.968;2024-03-29T01:42:16;2.60;;;1.40;;
3443;SDS011;1736;52.068;6.968;2024-03-29T01:44:42;3.50;;;1.50;;
3443;SDS011;1736;52.068;6.968;2024-03-29T01:47:09;1.65;;;1.40;;
3443;SDS011;1736;52.068;6.968;2024-03-29T01:49:35;4.10;;;1.70;;
3443;SDS011;1736;52.068;6.968;2024-03-29T01:52:02;2.40;;;1.40;;
3443;SDS011;1736;52.068;6.968;2024-03-29T01:54:31;3.72;;;1.63;;
3443;SDS011;1736;52.068;6.968;2024-03-29T01:56:58;4.07;;;1.80;;
3443;SDS011;1736;52.068;6.968;2024-03-29T01:59:25;2.58;;;1.30;;
3443;SDS011;1736;52.068;6.968;2024-03-29T02:01:54;3.50;;;1.90;;
3443;SDS011;1736;52.068;6.968;2024-03-29T02:04:21;1.73;;;1.30;;
3443;SDS011;1736;52.068;6.968;2024-03-29T02:06:48;3.42;;;1.40;;
3443;SDS011;1736;52.068;6.968;2024-03-29T02:09:15;2.95;;;1.40;;
3443;SDS011;1736;52.068;6.968;2024-03-29T02:11:43;4.55;;;1.60;;
3443;SDS011;1736;52.068;6.968;2024-03-29T02:14:10;2.72;;;1.50;;
3443;SDS011;1736;52.068;6.968;2024-03-29T02:16:35;3.47;;;1.50;;
3443;SDS011;1736;52.068;6.968;2024-03-29T02:19:03;2.97;;;1.55;;
3443;SDS011;1736;52.068;6.968;2024-03-29T02:21:29;3.63;;;1.20;;
3443;SDS011;1736;52.068;6.968;2024-03-29T02:24:00;2.05;;;1.40;;
3443;SDS011;1736;52.068;6.968;2024-03-29T02:26:31;2.60;;;1.10;;
3443;SDS011;1736;52.068;6.968;2024-03-29T02:29:01;2.00;;;1.20;;
3443;SDS011;1736;52.068;6.968;2024-03-29T02:31:27;2.90;;;1.40;;
3443;SDS011;1736;52.068;6.968;2024-03-29T02:33:54;2.50;;;1.40;;
3443;SDS011;1736;52.068;6.968;2024-03-29T02:36:21;3.20;;;1.20;;
3443;SDS011;1736;52.068;6.968;2024-03-29T02:38:47;4.17;;;1.50;;
3443;SDS011;1736;52.068;6.968;2024-03-29T02:41:15;2.47;;;1.40;;
3443;SDS011;1736;52.068;6.968;2024-03-29T02:43:41;1.40;;;1.13;;
3443;SDS011;1736;52.068;6.968;2024-03-29T02:46:08;4.10;;;1.57;;
3443;SDS011;1736;52.068;6.968;2024-03-29T02:48:35;4.40;;;1.50;;
3443;SDS011;1736;52.068;6.968;2024-03-29T02:51:00;4.40;;;1.60;;
3443;SDS011;1736;52.068;6.968;2024-03-29T02:53:28;4.07;;;1.58;;
3443;SDS011;1736;52.068;6.968;2024-03-29T02:55:53;1.70;;;1.50;;
3443;SDS011;1736;52.068;6.968;2024-03-29T02:58:21;1.90;;;1.20;;
3443;SDS011;1736;52.068;6.968;2024-03-29T03:00:48;2.88;;;1.40;;
3443;SDS011;1736;52.068;6.968;2024-03-29T03:03:14;1.50;;;1.40;;
3443;SDS011;1736;52.068;6.968;2024-03-29T03:05:42;1.58;;;1.38;;
3443;SDS011;1736;52.068;6.968;2024-03-29T03:08:07;2.20;;;1.33;;
3443;SDS011;1736;52.068;6.968;2024-03-29T03:10:51;2.97;;;1.30;;
3443;SDS011;1736;52.068;6.968;2024-03-29T03:13:27;3.88;;;1.40;;
3443;SDS011;1736;52.068;6.968;2024-03-29T03:15:54;4.25;;;1.40;;
3443;SDS011;1736;52.068;6.968;2024-03-29T03:18:22;1.90;;;1.50;;
3443;SDS011;1736;52.068;6.968;2024-03-29T03:20:52;2.13;;;1.40;;
3443;SDS011;1736;52.068;6.968;2024-03-29T03:23:18;1.98;;;1.40;;
3443;SDS011;1736;52.068;6.968;2024-03-29T03:25:45;1.33;;;1.20;;
3443;SDS011;1736;52.068;6.968;2024-03-29T03:28:10;2.50;;;1.40;;
3443;SDS011;1736;52.068;6.968;2024-03-29T03:30:39;1.40;;;1.30;;
3443;SDS011;1736;52.068;6.968;2024-03-29T03:33:05;2.83;;;1.20;;
3443;SDS011;1736;52.068;6.968;2024-03-29T03:35:32;1.63;;;1.20;;
3443;SDS011;1736;52.068;6.968;2024-03-29T03:37:57;3.03;;;1.40;;
3443;SDS011;1736;52.068;6.968;2024-03-29T03:40:24;1.30;;;1.20;;
3443;SDS011;1736;52.068;6.968;2024-03-29T03:42:49;2.87;;;1.50;;
3443;SDS011;1736;52.068;6.968;2024-03-29T03:45:16;3.38;;;1.65;;
3443;SDS011;1736;52.068;6.968;2024-03-29T03:47:43;4.07;;;1.83;;
3443;SDS011;1736;52.068;6.968;2024-03-29T03:50:09;2.45;;;1.40;;
3443;SDS011;1736;52.068;6.968;2024-03-29T03:52:35;2.23;;;1.50;;
3443;SDS011;1736;52.068;6.968;2024-03-29T03:55:01;3.63;;;1.40;;
3443;SDS011;1736;52.068;6.968;2024-03-29T03:57:27;3.00;;;1.40;;
3443;SDS011;1736;52.068;6.968;2024-03-29T03:59:53;3.38;;;1.50;;
3443;SDS011;1736;52.068;6.968;2024-03-29T04:02:19;2.78;;;1.40;;
3443;SDS011;1736;52.068;6.968;2024-03-29T04:04:48;1.67;;;1.30;;
3443;SDS011;1736;52.068;6.968;2024-03-29T04:07:13;1.80;;;1.30;;
3443;SDS011;1736;52.068;6.968;2024-03-29T04:09:40;1.70;;;1.38;;
3443;SDS011;1736;52.068;6.968;2024-03-29T04:12:05;2.47;;;1.38;;
3443;SDS011;1736;52.068;6.968;2024-03-29T04:14:32;2.38;;;1.23;;
3443;SDS011;1736;52.068;6.968;2024-03-29T04:16:58;1.33;;;1.23;;
3443;SDS011;1736;52.068;6.968;2024-03-29T04:19:24;1.30;;;1.20;;
3443;SDS011;1736;52.068;6.968;2024-03-29T04:21:52;2.50;;;1.30;;
3443;SDS011;1736;52.068;6.968;2024-03-29T04:24:18;3.10;;;1.20;;
3443;SDS011;1736;52.068;6.968;2024-03-29T04:26:44;2.60;;;1.40;;
3443;SDS011;1736;52.068;6.968;2024-03-29T04:29:12;2.10;;;1.30;;
3443;SDS011;1736;52.068;6.968;2024-03-29T04:31:37;1.92;;;1.40;;
3443;SDS011;1736;52.068;6.968;2024-03-29T04:34:04;2.70;;;1.30;;
3443;SDS011;1736;52.068;6.968;2024-03-29T04:36:30;2.10;;;1.27;;
3443;SDS011;1736;52.068;6.968;2024-03-29T04:38:57;2.00;;;1.30;;
3443;SDS011;1736;52.068;6.968;2024-03-29T04:41:24;3.22;;;1.30;;
3443;SDS011;1736;52.068;6.968;2024-03-29T04:49:01;3.45;;;1.40;;
3443;SDS011;1736;52.068;6.968;2024-03-29T04:51:27;1.20;;;1.10;;
3443;SDS011;1736;52.068;6.968;2024-03-29T04:53:54;1.60;;;1.40;;
3443;SDS011;1736;52.068;6.968;2024-03-29T04:56:22;1.45;;;1.20;;
3443;SDS011;1736;52.068;6.968;2024-03-29T04:58:48;2.10;;;1.30;;
3443;SDS011;1736;52.068;6.968;2024-03-29T05:01:15;1.85;;;1.20;;
3443;SDS011;1736;52.068;6.968;2024-03-29T05:03:41;2.38;;;1.48;;
3443;SDS011;1736;52.068;6.968;2024-03-29T05:06:08;1.73;;;1.23;;
3443;SDS011;1736;52.068;6.968;2024-03-29T05:08:35;3.05;;;1.58;;
3443;SDS011;1736;52.068;6.968;2024-03-29T05:11:02;2.90;;;1.20;;
3443;SDS011;1736;52.068;6.968;2024-03-29T05:13:30;2.03;;;1.30;;
3443;SDS011;1736;52.068;6.968;2024-03-29T05:15:57;1.77;;;1.52;;
3443;SDS011;1736;52.068;6.968;2024-03-29T05:18:23;2.95;;;1.50;;
3443;SDS011;1736;52.068;6.968;2024-03-29T05:20:50;3.15;;;1.40;;
3443;SDS011;1736;52.068;6.968;2024-03-29T05:23:16;1.60;;;1.50;;
3443;SDS011;1736;52.068;6.968;2024-03-29T05:25:43;1.60;;;1.50;;
3443;SDS011;1736;52.068;6.968;2024-03-29T05:28:09;3.47;;;1.40;;
3443;SDS011;1736;52.068;6.968;2024-03-29T05:30:37;2.10;;;1.40;;
3443;SDS011;1736;52.068;6.968;2024-03-29T05:33:04;1.70;;;1.33;;
3443;SDS011;1736;52.068;6.968;2024-03-29T05:35:31;3.40;;;1.70;;
3443;SDS011;1736;52.068;6.968;2024-03-29T05:37:58;4.32;;;1.80;;
3443;SDS011;1736;52.068;6.968;2024-03-29T05:40:25;2.00;;;1.80;;
3443;SDS011;1736;52.068;6.968;2024-03-29T05:42:52;2.20;;;1.80;;
3443;SDS011;1736;52.068;6.968;2024-03-29T05:45:22;5.35;;;1.90;;
3443;SDS011;1736;52.068;6.968;2024-03-29T05:47:53;3.17;;;1.65;;
3443;SDS011;1736;52.068;6.968;2024-03-29T05:50:20;3.47;;;1.80;;
3443;SDS011;1736;52.068;6.968;2024-03-29T05:52:47;1.77;;;1.63;;
3443;SDS011;1736;52.068;6.968;2024-03-29T05:55:13;3.10;;;1.40;;
3443;SDS011;1736;52.068;6.968;2024-03-29T05:57:40;3.45;;;1.80;;
3443;SDS011;1736;52.068;6.968;2024-03-29T06:00:10;3.95;;;1.60;;
3443;SDS011;1736;52.068;6.968;2024-03-29T06:02:38;3.40;;;1.70;;
3443;SDS011;1736;52.068;6.968;2024-03-29T06:05:07;1.92;;;1.40;;
3443;SDS011;1736;52.068;6.968;2024-03-29T06:07:34;2.20;;;1.50;;
3443;SDS011;1736;52.068;6.968;2024-03-29T06:10:00;3.28;;;1.65;;
3443;SDS011;1736;52.068;6.968;2024-03-29T06:12:29;2.50;;;1.70;;
3443;SDS011;1736;52.068;6.968;2024-03-29T06:14:56;2.20;;;1.95;;
3443;SDS011;1736;52.068;6.968;2024-03-29T06:17:40;2.80;;;1.70;;
3443;SDS011;1736;52.068;6.968;2024-03-29T06:20:08;3.83;;;1.90;;
3443;SDS011;1736;52.068;6.968;2024-03-29T06:22:35;4.28;;;2.10;;
3443;SDS011;1736;52.068;6.968;2024-03-29T06:25:01;2.55;;;2.10;;
3443;SDS011;1736;52.068;6.968;2024-03-29T06:27:30;1.90;;;1.80;;
3443;SDS011;1736;52.068;6.968;2024-03-29T06:29:56;3.63;;;2.20;;
3443;SDS011;1736;52.068;6.968;2024-03-29T06:32:23;2.63;;;2.00;;
3443;SDS011;1736;52.068;6.968;2024-03-29T06:34:50;3.00;;;1.90;;
3443;SDS011;1736;52.068;6.968;2024-03-29T06:37:18;1.90;;;1.80;;
3443;SDS011;1736;52.068;6.968;2024-03-29T06:39:46;3.63;;;1.90;;
3443;SDS011;1736;52.068;6.968;2024-03-29T06:42:13;3.13;;;1.90;;
3443;SDS011;1736;52.068;6.968;2024-03-29T06:44:40;1.90;;;1.70;;
3443;SDS011;1736;52.068;6.968;2024-03-29T06:47:06;1.70;;;1.40;;
3443;SDS011;1736;52.068;6.968;2024-03-29T06:49:33;2.80;;;1.90;;
3443;SDS011;1736;52.068;6.968;2024-03-29T06:52:00;5.70;;;2.00;;
3443;SDS011;1736;52.068;6.968;2024-03-29T06:54:28;3.20;;;1.80;;
3443;SDS011;1736;52.068;6.968;2024-03-29T06:56:55;3.20;;;1.50;;
3443;SDS011;1736;52.068;6.968;2024-03-29T06:59:22;2.20;;;1.80;;
3443;SDS011;1736;52.068;6.968;2024-03-29T07:01:49;3.53;;;1.83;;
3443;SDS011;1736;52.068;6.968;2024-03-29T07:04:17;3.20;;;2.13;;
3443;SDS011;1736;52.068;6.968;2024-03-29T07:06:44;2.58;;;1.60;;
3443;SDS011;1736;52.068;6.968;2024-03-29T07:09:13;2.38;;;1.80;;
3443;SDS011;1736;52.068;6.968;2024-03-29T07:11:41;2.47;;;1.60;;
3443;SDS011;1736;52.068;6.968;2024-03-29T07:14:07;3.78;;;1.70;;
3443;SDS011;1736;52.068;6.968;2024-03-29T07:16:34;1.90;;;1.42;;
3443;SDS011;1736;52.068;6.968;2024-03-29T07:19:01;2.23;;;1.60;;
3443;SDS011;1736;52.068;6.968;2024-03-29T07:21:28;2.23;;;1.50;;
3443;SDS011;1736;52.068;6.968;2024-03-29T07:23:54;1.95;;;1.40;;
3443;SDS011;1736;52.068;6.968;2024-03-29T07:26:21;1.50;;;1.40;;
3443;SDS011;1736;52.068;6.968;2024-03-29T07:28:49;1.40;;;1.20;;
3443;SDS011;1736;52.068;6.968;2024-03-29T07:31:15;1.63;;;1.52;;
3443;SDS011;1736;52.068;6.968;2024-03-29T07:33:42;2.90;;;1.70;;
3443;SDS011;1736;52.068;6.968;2024-03-29T07:36:09;1.90;;;1.50;;
3443;SDS011;1736;52.068;6.968;2024-03-29T07:38:36;1.60;;;1.40;;
3443;SDS011;1736;52.068;6.968;2024-03-29T07:41:03;3.00;;;1.60;;
3443;SDS011;1736;52.068;6.968;2024-03-29T07:43:36;3.50;;;1.70;;
3443;SDS011;1736;52.068;6.968;2024-03-29T07:46:06;1.80;;;1.40;;
3443;SDS011;1736;52.068;6.968;2024-03-29T07:48:34;2.13;;;1.50;;
3443;SDS011;1736;52.068;6.968;2024-03-29T07:51:01;2.22;;;1.63;;
3443;SDS011;1736;52.068;6.968;2024-03-29T07:53:27;4.32;;;2.00;;
3443;SDS011;1736;52.068;6.968;2024-03-29T07:55:54;3.83;;;1.80;;
3443;SDS011;1736;52.068;6.968;2024-03-29T07:58:21;2.72;;;1.58;;
3443;SDS011;1736;52.068;6.968;2024-03-29T08:00:47;2.40;;;1.65;;
3443;SDS011;1736;52.068;6.968;2024-03-29T08:03:15;2.58;;;1.80;;
3443;SDS011;1736;52.068;6.968;2024-03-29T08:05:42;3.08;;;1.65;;
3443;SDS011;1736;52.068;6.968;2024-03-29T08:08:08;2.05;;;1.50;;
3443;SDS011;1736;52.068;6.968;2024-03-29T08:10:34;3.65;;;2.55;;
3443;SDS011;1736;52.068;6.968;2024-03-29T08:13:01;2.60;;;1.80;;
3443;SDS011;1736;52.068;6.968;2024-03-29T08:15:27;14.82;;;2.10;;
3443;SDS011;1736;52.068;6.968;2024-03-29T08:17:54;4.60;;;2.10;;
3443;SDS011;1736;52.068;6.968;2024-03-29T08:20:22;3.00;;;1.90;;
3443;SDS011;1736;52.068;6.968;2024-03-29T08:22:54;2.30;;;1.83;;
3443;SDS011;1736;52.068;6.968;2024-03-29T08:25:23;2.80;;;1.90;;
3443;SDS011;1736;52.068;6.968;2024-03-29T08:27:52;2.10;;;1.80;;
3443;SDS011;1736;52.068;6.968;2024-03-29T08:30:23;3.80;;;1.90;;
3443;SDS011;1736;52.068;6.968;2024-03-29T08:32:50;2.60;;;1.70;;
3443;SDS011;1736;52.068;6.968;2024-03-29T08:35:17;4.05;;;2.42;;
3443;SDS011;1736;52.068;6.968;2024-03-29T08:37:46;4.13;;;2.10;;
3443;SDS011;1736;52.068;6.968;2024-03-29T08:40:13;3.95;;;1.90;;
3443;SDS011;1736;52.068;6.968;2024-03-29T08:42:39;3.28;;;2.03;;
3443;SDS011;1736;52.068;6.968;2024-03-29T08:45:06;3.50;;;1.65;;
3443;SDS011;1736;52.068;6.968;2024-03-29T08:47:35;3.65;;;1.83;;
3443;SDS011;1736;52.068;6.968;2024-03-29T08:50:01;2.67;;;1.70;;
3443;SDS011;1736;52.068;6.968;2024-03-29T08:52:29;3.33;;;1.98;;
3443;SDS011;1736;52.068;6.968;2024-03-29T08:54:57;3.55;;;2.00;;
3443;SDS011;1736;52.068;6.968;2024-03-29T08:57:23;2.55;;;1.80;;
3443;SDS011;1736;52.068;6.968;2024-03-29T08:59:50;2.55;;;1.80;;
3443;SDS011;1736;52.068;6.968;2024-03-29T09:02:17;2.10;;;1.60;;
3443;SDS011;1736;52.068;6.968;2024-03-29T09:04:44;3.47;;;1.80;;
3443;SDS011;1736;52.068;6.968;2024-03-29T09:07:10;3.47;;;1.80;;
3443;SDS011;1736;52.068;6.968;2024-03-29T09:09:37;3.45;;;1.90;;
3443;SDS011;1736;52.068;6.968;2024-03-29T09:12:07;2.25;;;1.90;;
3443;SDS011;1736;52.068;6.968;2024-03-29T09:14:35;2.33;;;2.00;;
3443;SDS011;1736;52.068;6.968;2024-03-29T09:17:01;2.63;;;1.70;;
3443;SDS011;1736;52.068;6.968;2024-03-29T09:19:28;3.20;;;2.90;;
3443;SDS011;1736;52.068;6.968;2024-03-29T09:21:56;2.87;;;1.93;;
3443;SDS011;1736;52.068;6.968;2024-03-29T09:24:22;3.92;;;2.40;;
3443;SDS011;1736;52.068;6.968;2024-03-29T09:26:51;3.80;;;2.30;;
3443;SDS011;1736;52.068;6.968;2024-03-29T09:29:19;5.87;;;2.50;;
3443;SDS011;1736;52.068;6.968;2024-03-29T09:31:46;4.30;;;2.10;;
3443;SDS011;1736;52.068;6.968;2024-03-29T09:34:12;2.97;;;2.00;;
3443;SDS011;1736;52.068;6.968;2024-03-29T09:36:39;3.35;;;2.00;;
3443;SDS011;1736;52.068;6.968;2024-03-29T09:39:06;2.95;;;2.00;;
3443;SDS011;1736;52.068;6.968;2024-03-29T09:41:33;5.35;;;2.20;;
3443;SDS011;1736;52.068;6.968;2024-03-29T09:44:03;3.13;;;1.70;;
3443;SDS011;1736;52.068;6.968;2024-03-29T09:46:34;2.13;;;1.90;;
3443;SDS011;1736;52.068;6.968;2024-03-29T09:49:02;2.90;;;2.10;;
3443;SDS011;1736;52.068;6.968;2024-03-29T09:51:29;3.10;;;2.20;;
3443;SDS011;1736;52.068;6.968;2024-03-29T09:53:57;3.60;;;2.20;;
3443;SDS011;1736;52.068;6.968;2024-03-29T09:56:25;2.20;;;2.00;;
3443;SDS011;1736;52.068;6.968;2024-03-29T09:58:53;5.47;;;2.17;;
3443;SDS011;1736;52.068;6.968;2024-03-29T10:01:19;4.40;;;2.00;;
3443;SDS011;1736;52.068;6.968;2024-03-29T10:03:49;2.78;;;2.08;;
3443;SDS011;1736;52.068;6.968;2024-03-29T10:06:16;3.38;;;1.90;;
3443;SDS011;1736;52.068;6.968;2024-03-29T10:08:45;2.20;;;1.85;;
3443;SDS011;1736;52.068;6.968;2024-03-29T10:11:11;3.80;;;1.95;;
3443;SDS011;1736;52.068;6.968;2024-03-29T10:13:41;1.70;;;1.60;;
3443;SDS011;1736;52.068;6.968;2024-03-29T10:16:10;2.40;;;1.80;;
3443;SDS011;1736;52.068;6.968;2024-03-29T10:18:37;3.80;;;1.65;;
3443;SDS011;1736;52.068;6.968;2024-03-29T10:21:08;1.92;;;1.83;;
3443;SDS011;1736;52.068;6.968;2024-03-29T10:23:34;1.80;;;1.70;;
3443;SDS011;1736;52.068;6.968;2024-03-29T10:26:02;2.20;;;1.80;;
3443;SDS011;1736;52.068;6.968;2024-03-29T10:28:30;3.60;;;1.98;;
3443;SDS011;1736;52.068;6.968;2024-03-29T10:30:58;2.85;;;1.83;;
3443;SDS011;1736;52.068;6.968;2024-03-29T10:33:27;3.10;;;1.80;;
3443;SDS011;1736;52.068;6.968;2024-03-29T10:35:55;3.97;;;1.93;;
3443;SDS011;1736;52.068;6.968;2024-03-29T10:38:24;3.00;;;1.90;;
3443;SDS011;1736;52.068;6.968;2024-03-29T10:40:52;2.55;;;1.80;;
3443;SDS011;1736;52.068;6.968;2024-03-29T10:43:18;4.23;;;1.80;;
3443;SDS011;1736;52.068;6.968;2024-03-29T10:45:46;2.50;;;1.60;;
3443;SDS011;1736;52.068;6.968;2024-03-29T10:48:15;1.90;;;1.80;;
3443;SDS011;1736;52.068;6.968;2024-03-29T10:50:42;1.80;;;1.60;;
3443;SDS011;1736;52.068;6.968;2024-03-29T10:53:09;3.40;;;1.63;;
3443;SDS011;1736;52.068;6.968;2024-03-29T10:55:37;3.63;;;1.80;;
3443;SDS011;1736;52.068;6.968;2024-03-29T10:58:04;2.08;;;1.70;;
3443;SDS011;1736;52.068;6.968;2024-03-29T11:00:32;2.10;;;1.60;;
3443;SDS011;1736;52.068;6.968;2024-03-29T11:03:05;2.00;;;1.50;;
3443;SDS011;1736;52.068;6.968;2024-03-29T11:05:41;2.08;;;1.67;;
3443;SDS011;1736;52.068;6.968;2024-03-29T11:08:11;3.42;;;1.92;;
3443;SDS011;1736;52.068;6.968;2024-03-29T11:10:41;2.30;;;2.00;;
3443;SDS011;1736;52.068;6.968;2024-03-29T11:13:12;1.80;;;1.48;;
3443;SDS011;1736;52.068;6.968;2024-03-29T11:15:50;3.73;;;1.40;;
3443;SDS011;1736;52.068;6.968;2024-03-29T11:18:16;2.10;;;1.90;;
3443;SDS011;1736;52.068;6.968;2024-03-29T11:20:44;1.60;;;1.50;;
3443;SDS011;1736;52.068;6.968;2024-03-29T11:23:16;2.30;;;1.50;;
3443;SDS011;1736;52.068;6.968;2024-03-29T11:25:48;5.60;;;1.80;;
3443;SDS011;1736;52.068;6.968;2024-03-29T11:28:22;3.25;;;1.60;;
3443;SDS011;1736;52.068;6.968;2024-03-29T11:30:51;2.22;;;1.65;;
3443;SDS011;1736;52.068;6.968;2024-03-29T11:33:25;2.05;;;1.60;;
3443;SDS011;1736;52.068;6.968;2024-03-29T11:35:53;2.20;;;1.60;;
3443;SDS011;1736;52.068;6.968;2024-03-29T11:38:20;2.10;;;1.60;;
3443;SDS011;1736;52.068;6.968;2024-03-29T11:40:54;2.15;;;1.63;;
3443;SDS011;1736;52.068;6.968;2024-03-29T11:43:21;2.92;;;1.58;;
3443;SDS011;1736;52.068;6.968;2024-03-29T11:45:48;2.22;;;1.55;;
3443;SDS011;1736;52.068;6.968;2024-03-29T11:48:17;1.60;;;1.20;;
3443;SDS011;1736;52.068;6.968;2024-03-29T11:50:50;1.80;;;1.60;;
3443;SDS011;1736;52.068;6.968;2024-03-29T11:53:17;2.40;;;1.40;;
3443;SDS011;1736;52.068;6.968;2024-03-29T11:55:44;1.50;;;1.40;;
3443;SDS011;1736;52.068;6.968;2024-03-29T11:58:12;1.58;;;1.48;;
3443;SDS011;1736;52.068;6.968;2024-03-29T12:00:38;1.30;;;1.20;;
3443;SDS011;1736;52.068;6.968;2024-03-29T12:03:09;1.50;;;1.40;;
3443;SDS011;1736;52.068;6.968;2024-03-29T12:05:36;1.20;;;1.10;;
3443;SDS011;1736;52.068;6.968;2024-03-29T12:08:02;1.63;;;1.25;;
3443;SDS011;1736;52.068;6.968;2024-03-29T12:10:30;1.20;;;1.10;;
3443;SDS011;1736;52.068;6.968;2024-03-29T12:12:56;1.90;;;1.30;;
3443;SDS011;1736;52.068;6.968;2024-03-29T12:15:24;2.20;;;1.40;;
3443;SDS011;1736;52.068;6.968;2024-03-29T12:17:54;1.33;;;1.23;;
3443;SDS011;1736;52.068;6.968;2024-03-29T12:20:21;1.70;;;1.40;;
3443;SDS011;1736;52.068;6.968;2024-03-29T12:22:47;1.60;;;1.50;;
3443;SDS011;1736;52.068;6.968;2024-03-29T12:25:14;1.80;;;1.38;;
3443;SDS011;1736;52.068;6.968;2024-03-29T12:27:42;1.80;;;1.30;;
3443;SDS011;1736;52.068;6.968;2024-03-29T12:30:09;1.33;;;1.20;;
3443;SDS011;1736;52.068;6.968;2024-03-29T12:32:39;1.52;;;1.10;;
3443;SDS011;1736;52.068;6.968;2024-03-29T12:35:07;1.20;;;1.10;;
3443;SDS011;1736;52.068;6.968;2024-03-29T12:37:34;3.03;;;1.20;;
3443;SDS011;1736;52.068;6.968;2024-03-29T12:40:01;1.20;;;1.10;;
3443;SDS011;1736;52.068;6.968;2024-03-29T12:42:36;1.95;;;1.10;;
3443;SDS011;1736;52.068;6.968;2024-03-29T12:45:03;1.25;;;1.10;;
3443;SDS011;1736;52.068;6.968;2024-03-29T12:47:31;1.10;;;1.00;;
3443;SDS011;1736;52.068;6.968;2024-03-29T12:50:00;1.02;;;1.02;;
3443;SDS011;1736;52.068;6.968;2024-03-29T12:52:35;1.38;;;1.27;;
3443;SDS011;1736;52.068;6.968;2024-03-29T12:55:03;1.30;;;1.20;;
3443;SDS011;1736;52.068;6.968;2024-03-29T12:57:32;1.30;;;1.20;;
3443;SDS011;1736;52.068;6.968;2024-03-29T12:59:59;1.33;;;1.23;;
3443;SDS011;1736;52.068;6.968;2024-03-29T13:02:26;1.40;;;1.30;;
3443;SDS011;1736;52.068;6.968;2024-03-29T13:04:52;2.17;;;1.35;;
3443;SDS011;1736;52.068;6.968;2024-03-29T13:07:20;1.47;;;1.37;;
3443;SDS011;1736;52.068;6.968;2024-03-29T13:09:47;1.70;;;1.30;;
3443;SDS011;1736;52.068;6.968;2024-03-29T13:12:13;1.40;;;1.30;;
3443;SDS011;1736;52.068;6.968;2024-03-29T13:14:40;1.50;;;1.40;;
3443;SDS011;1736;52.068;6.968;2024-03-29T13:17:06;1.55;;;1.40;;
3443;SDS011;1736;52.068;6.968;2024-03-29T13:19:33;1.43;;;1.33;;
3443;SDS011;1736;52.068;6.968;2024-03-29T13:22:00;1.50;;;1.40;;
3443;SDS011;1736;52.068;6.968;2024-03-29T13:24:28;1.50;;;1.40;;
3443;SDS011;1736;52.068;6.968;2024-03-29T13:26:55;1.58;;;1.48;;
3443;SDS011;1736;52.068;6.968;2024-03-29T13:29:22;1.50;;;1.40;;
3443;SDS011;1736;52.068;6.968;2024-03-29T13:31:48;1.80;;;1.40;;
3443;SDS011;1736;52.068;6.968;2024-03-29T13:34:15;1.60;;;1.50;;
3443;SDS011;1736;52.068;6.968;2024-03-29T13:36:42;1.60;;;1.50;;
3443;SDS011;1736;52.068;6.968;2024-03-29T13:39:10;1.80;;;1.50;;
3443;SDS011;1736;52.068;6.968;2024-03-29T13:41:40;2.40;;;1.80;;
3443;SDS011;1736;52.068;6.968;2024-03-29T13:44:06;3.10;;;1.60;;
3443;SDS011;1736;52.068;6.968;2024-03-29T13:46:33;1.40;;;1.30;;
3443;SDS011;1736;52.068;6.968;2024-03-29T13:49:00;2.28;;;2.00;;
3443;SDS011;1736;52.068;6.968;2024-03-29T13:51:26;1.83;;;1.73;;
3443;SDS011;1736;52.068;6.968;2024-03-29T13:53:53;1.70;;;1.60;;
3443;SDS011;1736;52.068;6.968;2024-03-29T13:56:20;1.60;;;1.50;;
3443;SDS011;1736;52.068;6.968;2024-03-29T13:58:48;2.88;;;1.90;;
3443;SDS011;1736;52.068;6.968;2024-03-29T14:01:15;2.35;;;1.90;;
3443;SDS011;1736;52.068;6.968;2024-03-29T14:03:41;2.10;;;1.70;;
3443;SDS011;1736;52.068;6.968;2024-03-29T14:06:08;2.10;;;1.90;;
3443;SDS011;1736;52.068;6.968;2024-03-29T14:08:35;2.00;;;1.80;;
3443;SDS011;1736;52.068;6.968;2024-03-29T14:11:02;2.03;;;1.40;;
3443;SDS011;1736;52.068;6.968;2024-03-29T14:13:29;2.20;;;1.80;;
3443;SDS011;1736;52.068;6.968;2024-03-29T14:15:58;2.70;;;1.60;;
3443;SDS011;1736;52.068;6.968;2024-03-29T14:18:25;2.13;;;1.70;;
3443;SDS011;1736;52.068;6.968;2024-03-29T14:20:52;3.90;;;2.38;;
3443;SDS011;1736;52.068;6.968;2024-03-29T14:23:19;1.70;;;1.60;;
3443;SDS011;1736;52.068;6.968;2024-03-29T14:25:48;2.25;;;1.60;;
3443;SDS011;1736;52.068;6.968;2024-03-29T14:28:14;3.65;;;1.90;;
3443;SDS011;1736;52.068;6.968;2024-03-29T14:30:41;2.17;;;1.85;;
3443;SDS011;1736;52.068;6.968;2024-03-29T14:33:09;1.50;;;1.40;;
3443;SDS011;1736;52.068;6.968;2024-03-29T14:35:35;2.05;;;1.40;;
3443;SDS011;1736;52.068;6.968;2024-03-29T14:38:02;3.40;;;1.60;;
3443;SDS011;1736;52.068;6.968;2024-03-29T14:40:29;2.10;;;1.70;;
3443;SDS011;1736;52.068;6.968;2024-03-29T14:42:55;4.05;;;1.70;;
3443;SDS011;1736;52.068;6.968;2024-03-29T14:45:23;1.80;;;1.60;;
3443;SDS011;1736;52.068;6.968;2024-03-29T14:47:49;1.70;;;1.60;;
3443;SDS011;1736;52.068;6.968;2024-03-29T14:50:17;1.97;;;1.40;;
3443;SDS011;1736;52.068;6.968;2024-03-29T14:52:44;1.90;;;1.50;;
3443;SDS011;1736;52.068;6.968;2024-03-29T14:55:11;1.50;;;1.40;;
3443;SDS011;1736;52.068;6.968;2024-03-29T14:57:38;2.42;;;1.50;;
3443;SDS011;1736;52.068;6.968;2024-03-29T15:00:05;1.92;;;1.30;;
3443;SDS011;1736;52.068;6.968;2024-03-29T15:02:33;2.00;;;1.27;;
3443;SDS011;1736;52.068;6.968;2024-03-29T15:05:00;1.50;;;1.40;;
3443;SDS011;1736;52.068;6.968;2024-03-29T15:07:29;1.70;;;1.00;;
3443;SDS011;1736;52.068;6.968;2024-03-29T15:09:56;1.42;;;1.30;;
3443;SDS011;1736;52.068;6.968;2024-03-29T15:12:23;2.00;;;1.30;;
3443;SDS011;1736;52.068;6.968;2024-03-29T15:14:49;1.30;;;1.20;;
3443;SDS011;1736;52.068;6.968;2024-03-29T15:17:16;1.50;;;1.40;;
3443;SDS011;1736;52.068;6.968;2024-03-29T15:19:45;1.80;;;1.20;;